createdAt,value
2018-12-07T00:18:49.779Z,4.20
2018-12-07T00:29:04.522Z,4.00
2018-12-07T00:34:07.807Z,4.20
2018-12-07T00:39:11.094Z,4.00
2018-12-07T00:44:14.401Z,3.75
2018-12-07T00:49:17.710Z,3.00
2018-12-07T00:54:21.000Z,3.00
2018-12-07T00:59:24.420Z,4.00
2018-12-07T01:04:27.735Z,3.00
2018-12-07T01:09:31.047Z,3.00
2018-12-07T01:14:34.366Z,3.75
2018-12-07T01:19:37.667Z,3.00
2018-12-07T01:24:40.994Z,3.00
2018-12-07T01:29:44.310Z,4.00
2018-12-07T01:34:47.610Z,2.25
2018-12-07T01:39:50.919Z,3.00
2018-12-07T01:44:54.231Z,4.00
2018-12-07T01:49:57.527Z,2.50
2018-12-07T01:55:00.824Z,3.00
2018-12-07T02:00:04.508Z,3.00
2018-12-07T02:05:07.832Z,2.20
2018-12-07T02:10:11.123Z,3.00
2018-12-07T02:15:14.426Z,3.00
2018-12-07T02:20:17.714Z,2.80
2018-12-07T02:25:21.145Z,3.00
2018-12-07T02:30:24.444Z,2.80
2018-12-07T02:35:27.757Z,2.20
2018-12-07T02:40:31.055Z,2.75
2018-12-07T02:45:34.467Z,2.00
2018-12-07T02:50:37.782Z,2.00
2018-12-07T02:55:41.101Z,2.00
2018-12-07T03:00:44.391Z,2.50
2018-12-07T03:05:47.689Z,2.75
2018-12-07T03:10:50.991Z,3.00
2018-12-07T03:15:54.282Z,2.00
2018-12-07T03:20:57.591Z,2.20
2018-12-07T03:26:00.870Z,2.00
2018-12-07T03:31:04.163Z,2.25
2018-12-07T03:36:07.587Z,1.80
2018-12-07T03:41:10.887Z,3.00
2018-12-07T03:46:14.178Z,1.00
2018-12-07T03:51:17.471Z,1.80
2018-12-07T03:56:20.777Z,2.00
2018-12-07T04:01:24.063Z,2.00
2018-12-07T04:06:27.350Z,2.20
2018-12-07T04:11:30.706Z,3.00
2018-12-07T04:16:33.982Z,2.00
2018-12-07T04:21:37.258Z,1.25
2018-12-07T04:26:40.703Z,2.40
2018-12-07T04:31:43.997Z,1.50
2018-12-07T04:36:47.296Z,2.00
2018-12-07T04:41:50.617Z,1.50
2018-12-07T04:46:54.451Z,1.00
2018-12-07T04:51:57.847Z,1.50
2018-12-07T04:57:01.455Z,1.40
2018-12-07T05:02:05.365Z,1.80
2018-12-07T05:07:08.648Z,1.00
2018-12-07T05:12:11.989Z,2.00
2018-12-07T05:17:15.322Z,1.25
2018-12-07T05:22:18.614Z,1.00
2018-12-07T05:27:21.906Z,2.00
2018-12-07T05:32:25.183Z,1.75
2018-12-07T05:37:28.529Z,1.00
2018-12-07T05:42:31.807Z,1.00
2018-12-07T05:47:35.102Z,1.00
2018-12-07T05:52:38.451Z,1.60
2018-12-07T05:57:42.013Z,1.60
2018-12-07T06:02:45.297Z,1.00
2018-12-07T06:07:48.761Z,1.00
2018-12-07T06:12:52.038Z,2.00
2018-12-07T06:17:55.398Z,1.00
2018-12-07T06:22:58.703Z,1.00
2018-12-07T06:28:01.998Z,1.00
2018-12-07T06:33:05.290Z,1.00
2018-12-07T06:38:08.594Z,1.00
2018-12-07T06:43:11.902Z,1.00
2018-12-07T06:48:15.311Z,1.20
2018-12-07T06:53:18.598Z,1.60
2018-12-07T06:58:21.893Z,1.20
2018-12-07T07:03:25.200Z,1.00
2018-12-07T07:08:28.526Z,1.00
2018-12-07T07:13:31.806Z,1.00
2018-12-07T07:18:35.100Z,1.00
2018-12-07T07:23:38.390Z,0.75
2018-12-07T07:28:41.794Z,0.00
2018-12-07T07:33:45.218Z,1.00
2018-12-07T07:38:48.510Z,1.00
2018-12-07T07:43:51.811Z,0.80
2018-12-07T07:48:55.151Z,1.00
2018-12-07T07:53:58.459Z,2.00
2018-12-07T07:59:01.785Z,0.20
2018-12-07T08:04:05.117Z,0.00
2018-12-07T08:09:08.484Z,0.50
2018-12-07T08:14:11.787Z,0.00
2018-12-07T08:19:15.074Z,0.00
2018-12-07T08:24:18.380Z,0.00
2018-12-07T08:29:21.695Z,0.00
2018-12-07T08:34:24.996Z,0.00
2018-12-07T08:39:28.283Z,0.00
2018-12-07T08:44:31.590Z,0.00
2018-12-07T08:49:40.263Z,0.00
2018-12-07T08:54:43.630Z,0.00
2018-12-07T08:59:46.947Z,0.00
2018-12-07T09:04:50.243Z,0.00
2018-12-07T09:09:53.530Z,0.00
2018-12-07T09:14:56.827Z,0.00
2018-12-07T09:20:00.122Z,0.00
2018-12-07T09:25:03.594Z,0.00
2018-12-07T09:30:06.902Z,0.00
2018-12-07T09:35:10.195Z,0.00
2018-12-07T09:40:13.479Z,0.00
2018-12-07T09:45:16.762Z,0.00
2018-12-07T09:50:20.043Z,0.00
2018-12-07T09:55:23.322Z,0.00
2018-12-07T10:00:26.646Z,0.00
2018-12-07T10:05:29.998Z,0.00
2018-12-07T10:10:33.292Z,0.00
2018-12-07T10:15:36.592Z,0.00
2018-12-07T10:20:40.279Z,0.00
2018-12-07T10:25:43.554Z,0.00
2018-12-07T10:30:46.834Z,0.00
2018-12-07T10:35:50.114Z,0.00
2018-12-07T10:40:53.405Z,0.00
2018-12-07T10:45:56.690Z,0.00
2018-12-07T10:51:00.070Z,0.00
2018-12-07T10:56:03.413Z,0.00
2018-12-07T11:01:12.147Z,0.00
2018-12-07T11:06:20.903Z,0.00
2018-12-07T11:11:29.502Z,0.00
2018-12-07T11:16:38.045Z,0.00
2018-12-07T11:21:46.621Z,0.00
2018-12-07T11:26:55.334Z,0.00
2018-12-07T11:32:03.998Z,0.00
2018-12-07T11:37:07.291Z,0.00
2018-12-07T11:42:10.587Z,0.00
2018-12-07T11:47:13.900Z,0.00
2018-12-07T11:52:17.198Z,0.00
2018-12-07T11:57:20.495Z,0.00
2018-12-07T12:02:26.497Z,0.00
2018-12-07T12:07:29.130Z,0.00
2018-12-07T12:12:32.434Z,0.00
2018-12-07T12:17:35.734Z,0.00
2018-12-07T12:22:39.031Z,0.00
2018-12-07T12:27:42.327Z,0.00
2018-12-07T12:32:45.646Z,0.00
2018-12-07T12:37:48.941Z,0.00
2018-12-07T12:42:52.327Z,0.00
2018-12-07T12:47:55.666Z,0.00
2018-12-07T12:52:58.982Z,0.00
2018-12-07T12:58:02.346Z,0.00
2018-12-07T13:03:05.634Z,0.00
2018-12-07T13:08:08.926Z,0.00
2018-12-07T13:13:12.228Z,0.00
2018-12-07T13:18:15.529Z,0.00
2018-12-07T13:23:18.852Z,0.00
2018-12-07T13:28:22.153Z,0.00
2018-12-07T13:33:25.450Z,0.00
2018-12-07T13:38:28.735Z,0.00
2018-12-07T13:43:32.249Z,0.00
2018-12-07T13:48:35.743Z,0.00
2018-12-07T13:53:39.163Z,0.00
2018-12-07T13:58:42.570Z,0.00
2018-12-07T14:03:45.995Z,0.00
2018-12-07T14:08:49.384Z,0.00
2018-12-07T14:13:52.808Z,0.00
2018-12-07T14:18:56.210Z,0.00
2018-12-07T14:23:59.629Z,0.00
2018-12-07T14:29:03.069Z,4.00
2018-12-07T14:34:06.596Z,3.00
2018-12-07T14:39:09.957Z,5.00
2018-12-07T14:44:13.291Z,7.75
2018-12-07T14:49:16.721Z,7.25
2018-12-07T14:54:20.300Z,6.50
2018-12-07T14:59:23.703Z,7.20
2018-12-07T15:04:27.006Z,7.25
2018-12-07T15:09:30.689Z,6.00
2018-12-07T15:14:34.171Z,6.60
2018-12-07T15:19:37.598Z,6.50
2018-12-07T15:24:41.412Z,6.00
2018-12-07T15:29:44.965Z,7.00
2018-12-07T15:34:48.439Z,4.00
2018-12-07T15:39:51.980Z,4.60
2018-12-07T15:44:55.319Z,5.00
2018-12-07T15:49:58.860Z,6.20
2018-12-07T15:55:02.327Z,4.00
2018-12-07T16:00:07.074Z,5.00
2018-12-07T16:05:10.705Z,5.00
2018-12-07T16:10:14.212Z,4.00
2018-12-07T16:15:17.923Z,4.00
2018-12-07T16:20:21.456Z,3.80
2018-12-07T16:25:24.961Z,3.50
2018-12-07T16:30:28.346Z,4.75
2018-12-07T16:35:32.432Z,3.60
2018-12-07T16:40:35.800Z,5.00
2018-12-07T16:45:39.284Z,4.00
2018-12-07T16:50:42.721Z,3.75
2018-12-07T16:55:46.051Z,4.00
2018-12-07T17:00:49.495Z,3.60
2018-12-07T17:05:52.915Z,4.00
2018-12-07T17:10:56.290Z,3.00
2018-12-07T17:15:59.845Z,3.80
2018-12-07T17:21:03.253Z,3.50
2018-12-07T17:26:06.824Z,3.80
2018-12-07T17:31:10.244Z,4.25
2018-12-07T17:36:13.980Z,3.50
2018-12-07T17:41:17.398Z,3.75
2018-12-07T17:46:21.084Z,3.00
2018-12-07T17:51:24.594Z,3.20
2018-12-07T17:56:28.019Z,3.00
2018-12-07T18:01:31.359Z,2.50
2018-12-07T18:06:34.668Z,3.00
2018-12-07T18:11:37.959Z,3.00
2018-12-07T18:16:41.480Z,3.75
2018-12-07T18:21:45.323Z,2.50
2018-12-07T18:26:48.815Z,3.00
2018-12-07T18:31:52.276Z,3.00
2018-12-07T18:36:55.867Z,3.00
2018-12-07T18:41:59.292Z,2.25
2018-12-07T18:47:02.631Z,3.00
2018-12-07T18:52:06.006Z,3.00
2018-12-07T18:57:09.282Z,3.00
2018-12-07T19:02:12.796Z,2.60
2018-12-07T19:07:16.296Z,3.75
2018-12-07T19:12:19.799Z,3.00
2018-12-07T19:17:23.288Z,3.25
2018-12-07T19:22:26.821Z,3.00
2018-12-07T19:27:30.410Z,4.00
2018-12-07T19:32:33.994Z,3.00
2018-12-07T19:37:37.318Z,4.00
2018-12-07T19:42:40.846Z,4.75
2018-12-07T19:47:44.588Z,3.80
2018-12-07T19:52:47.986Z,3.20
2018-12-07T19:57:56.310Z,4.00
2018-12-07T20:03:00.178Z,4.00
2018-12-07T20:08:03.563Z,5.00
2018-12-07T20:13:08.088Z,4.75
2018-12-07T20:18:11.754Z,5.75
2018-12-07T20:23:15.047Z,4.80
2018-12-07T20:28:18.576Z,4.25
2018-12-07T20:33:21.974Z,5.00
2018-12-07T20:38:25.466Z,5.25
2018-12-07T20:43:29.098Z,5.00
2018-12-07T20:48:32.472Z,4.50
2018-12-07T20:53:35.964Z,5.20
2018-12-07T20:58:39.390Z,5.50
2018-12-07T21:04:03.866Z,6.50
2018-12-07T21:09:26.343Z,7.50
2018-12-07T21:14:41.953Z,7.50
2018-12-07T21:19:49.945Z,6.80
2018-12-07T21:24:53.423Z,7.50
2018-12-07T21:30:15.290Z,7.00
2018-12-07T21:35:18.897Z,6.00
2018-12-07T21:40:25.897Z,6.60
2018-12-07T21:45:29.707Z,7.25
2018-12-07T21:50:33.932Z,7.25
2018-12-07T21:55:37.435Z,7.00
2018-12-07T22:00:41.022Z,9.80
2018-12-07T22:05:44.477Z,6.50
2018-12-07T22:10:47.931Z,8.00
2018-12-07T22:15:51.366Z,8.00
2018-12-07T22:20:55.070Z,9.00
2018-12-07T22:25:58.438Z,9.00
2018-12-07T22:31:01.749Z,9.00
2018-12-07T22:36:05.192Z,8.00
2018-12-07T22:41:08.799Z,9.00
2018-12-07T22:46:12.415Z,8.00
2018-12-07T22:51:17.778Z,9.00
2018-12-07T22:56:21.066Z,9.50
2018-12-07T23:01:24.354Z,9.00
2018-12-07T23:06:27.663Z,7.00
2018-12-07T23:11:30.974Z,8.60
2018-12-07T23:16:34.270Z,8.25
2018-12-07T23:21:37.558Z,7.40
2018-12-07T23:26:40.838Z,7.00
2018-12-07T23:31:44.122Z,7.00
2018-12-07T23:36:47.445Z,7.00
2018-12-07T23:41:50.720Z,6.40
2018-12-07T23:46:54.041Z,5.60
2018-12-07T23:51:57.474Z,6.80
2018-12-07T23:57:00.758Z,4.80
